Time;durP1;ratioP1;P1;durP2;ratioP2;P2;SDS_P1;SDS_P2;PMS_P1;PMS_P2;Temp;Humidity;BMP_temperature;BMP_pressure;BME280_temperature;BME280_humidity;BME280_pressure;Samples;Min_cycle;Max_cycle;Signal;HPM_P1;HPM_P2
2023/01/27 00:02:17;;;;;;;27.20;17.10;;;;;;;-2.30;100.00;96911.91;5015415;28;20186;-61
2023/01/27 00:05:09;;;;;;;28.70;18.53;;;;;;;-2.30;100.00;96908.53;5013578;28;20361;-61
2023/01/27 00:07:34;;;;;;;30.03;18.07;;;;;;;-2.40;100.00;96918.03;5014826;28;20206;-57
2023/01/27 00:10:00;;;;;;;27.87;18.17;;;;;;;-2.34;100.00;96918.25;5015748;28;20175;-54
2023/01/27 00:15:12;;;;;;;34.20;19.70;;;;;;;-2.37;100.00;96910.03;5015656;28;20203;-56
2023/01/27 00:17:37;;;;;;;26.60;17.67;;;;;;;-2.55;100.00;96910.81;5015189;28;20184;-57
2023/01/27 00:20:05;;;;;;;30.33;19.23;;;;;;;-2.44;100.00;96901.28;4997462;28;20190;-59
2023/01/27 00:25:15;;;;;;;29.73;18.70;;;;;;;-2.25;100.00;96903.78;5015109;28;20206;-61
2023/01/27 00:27:41;;;;;;;30.23;18.60;;;;;;;-2.21;100.00;96902.53;5015338;28;20187;-57
2023/01/27 00:30:07;;;;;;;29.77;20.00;;;;;;;-2.15;100.00;96896.81;5014889;28;20543;-58
2023/01/27 00:35:17;;;;;;;28.97;19.23;;;;;;;-2.16;100.00;96906.28;5014932;28;20562;-54
2023/01/27 00:37:46;;;;;;;26.63;19.37;;;;;;;-2.51;100.00;96913.91;4997584;28;20261;-60
2023/01/27 00:40:15;;;;;;;30.67;17.67;;;;;;;-2.48;100.00;96910.22;5015346;28;20175;-59
2023/01/27 00:42:40;;;;;;;31.63;19.93;;;;;;;-2.46;100.00;96911.72;5014951;28;20653;-60
2023/01/27 00:47:51;;;;;;;31.47;19.30;;;;;;;-2.39;100.00;96911.94;5000335;28;20714;-61
2023/01/27 00:50:18;;;;;;;32.20;19.43;;;;;;;-2.40;100.00;96916.28;5015072;28;20179;-60
2023/01/27 00:52:44;;;;;;;30.53;19.80;;;;;;;-2.61;100.00;96908.00;5016202;28;20258;-59
2023/01/27 00:55:09;;;;;;;29.80;20.13;;;;;;;-2.46;100.00;96911.72;5013955;28;20314;-59
2023/01/27 00:57:36;;;;;;;31.13;20.80;;;;;;;-2.41;100.00;96912.09;5015123;28;20286;-57
2023/01/27 01:00:02;;;;;;;33.87;20.20;;;;;;;-2.37;100.00;96917.75;5013945;28;20190;-60
2023/01/27 01:02:28;;;;;;;35.77;21.07;;;;;;;-2.66;100.00;96910.19;5013942;28;20659;-59
2023/01/27 01:04:53;;;;;;;31.33;19.53;;;;;;;-2.61;100.00;96913.13;5012291;28;20238;-57
2023/01/27 01:07:19;;;;;;;33.03;20.47;;;;;;;-2.60;100.00;96917.31;5013467;28;20553;-59
2023/01/27 01:09:44;;;;;;;34.13;21.23;;;;;;;-2.55;100.00;96915.94;5012831;28;20246;-59
2023/01/27 01:12:09;;;;;;;30.60;20.93;;;;;;;-2.59;100.00;96921.50;4994905;28;20565;-60
2023/01/27 01:14:35;;;;;;;38.00;20.73;;;;;;;-2.56;100.00;96911.75;5013854;28;20283;-59
2023/01/27 01:17:00;;;;;;;37.27;22.30;;;;;;;-2.35;100.00;96910.72;4996475;28;20210;-59
2023/01/27 01:19:26;;;;;;;33.40;21.27;;;;;;;-2.45;100.00;96918.44;5013992;28;20261;-59
2023/01/27 01:21:51;;;;;;;32.80;21.30;;;;;;;-2.38;100.00;96919.50;5014181;28;20174;-60
2023/01/27 01:24:17;;;;;;;31.57;21.80;;;;;;;-2.53;100.00;96920.94;5013919;28;20200;-58
2023/01/27 01:26:42;;;;;;;34.00;21.77;;;;;;;-2.54;100.00;96924.44;5013563;28;20632;-60
2023/01/27 01:29:08;;;;;;;31.60;20.23;;;;;;;-2.47;100.00;96920.38;5013964;28;20210;-59
2023/01/27 01:31:33;;;;;;;35.47;20.83;;;;;;;-2.42;100.00;96914.81;5013999;28;20171;-60
2023/01/27 01:33:58;;;;;;;35.77;22.30;;;;;;;-2.48;100.00;96925.63;5013704;28;20238;-60
2023/01/27 01:36:24;;;;;;;35.43;21.27;;;;;;;-2.61;100.00;96921.63;5014104;28;20190;-57
2023/01/27 01:38:55;;;;;;;35.27;21.97;;;;;;;-2.66;100.00;96923.81;5013858;28;20183;-59
2023/01/27 01:41:20;;;;;;;38.10;22.77;;;;;;;-2.80;100.00;96923.47;5014276;28;20179;-60
2023/01/27 01:43:48;;;;;;;35.13;22.23;;;;;;;-2.70;100.00;96919.91;5014407;28;20572;-61
2023/01/27 01:46:13;;;;;;;35.27;22.17;;;;;;;-2.69;100.00;96918.97;5013554;28;20626;-60
2023/01/27 01:48:46;;;;;;;38.47;23.87;;;;;;;-2.63;100.00;96912.47;5014248;28;20259;-60
2023/01/27 01:51:27;;;;;;;36.90;22.87;;;;;;;-2.62;100.00;96906.41;5013746;28;20612;-60
2023/01/27 01:54:24;;;;;;;34.47;21.80;;;;;;;-2.78;100.00;96908.72;5013340;28;20694;-61
2023/01/27 01:57:11;;;;;;;39.20;21.83;;;;;;;-2.65;100.00;96907.47;4983253;28;20664;-59
2023/01/27 01:59:57;;;;;;;43.73;22.07;;;;;;;-2.75;100.00;96901.59;5012511;28;20209;-59
2023/01/27 02:02:23;;;;;;;38.13;23.03;;;;;;;-2.64;100.00;96898.03;5013112;28;20191;-60
2023/01/27 02:04:56;;;;;;;40.13;23.70;;;;;;;-2.73;100.00;96891.97;5010404;28;20235;-59
2023/01/27 02:07:46;;;;;;;39.93;23.23;;;;;;;-2.78;100.00;96899.28;5012555;28;20237;-60
2023/01/27 02:10:12;;;;;;;38.37;22.70;;;;;;;-2.66;100.00;96900.72;5013105;28;20179;-61
2023/01/27 02:12:37;;;;;;;45.63;23.67;;;;;;;-2.71;100.00;96896.97;5013386;28;20182;-60
2023/01/27 02:15:04;;;;;;;39.70;21.33;;;;;;;-2.71;100.00;96889.28;5012967;28;20249;-61
2023/01/27 02:17:30;;;;;;;40.93;21.33;;;;;;;-2.68;100.00;96889.00;4995340;28;20199;-60
2023/01/27 02:19:56;;;;;;;37.37;22.13;;;;;;;-2.53;100.00;96895.28;4995514;28;20183;-60
2023/01/27 02:22:45;;;;;;;41.00;21.83;;;;;;;-2.47;100.00;96894.72;5013188;28;20612;-61
2023/01/27 02:25:34;;;;;;;34.10;19.03;;;;;;;-2.70;100.00;96893.47;4995155;28;20187;-60
2023/01/27 02:28:05;;;;;;;34.40;18.70;;;;;;;-2.66;100.00;96885.34;4966552;28;20304;-60
2023/01/27 02:30:31;;;;;;;33.07;18.67;;;;;;;-2.55;100.00;96874.88;4995206;28;20218;-59
2023/01/27 02:32:56;;;;;;;39.23;20.67;;;;;;;-2.53;100.00;96875.56;5012395;28;20623;-60
2023/01/27 02:35:32;;;;;;;36.23;20.57;;;;;;;-2.44;100.00;96876.44;5012882;28;20213;-60
2023/01/27 02:37:58;;;;;;;39.43;21.13;;;;;;;-2.44;100.00;96873.88;5013016;28;20526;-58
2023/01/27 02:40:24;;;;;;;33.37;20.17;;;;;;;-2.51;100.00;96883.13;5013146;28;20187;-60
2023/01/27 02:42:54;;;;;;;35.33;20.73;;;;;;;-2.50;100.00;96877.00;5012750;28;20666;-61
2023/01/27 02:45:20;;;;;;;40.40;21.00;;;;;;;-2.47;100.00;96888.75;5011659;28;20237;-61
2023/01/27 02:47:45;;;;;;;41.47;19.60;;;;;;;-2.52;100.00;96891.75;5012871;28;20647;-61
2023/01/27 02:50:11;;;;;;;37.03;20.33;;;;;;;-2.48;100.00;96887.16;5012706;28;20187;-60
2023/01/27 02:52:36;;;;;;;35.17;20.93;;;;;;;-2.51;100.00;96890.81;5012478;28;20540;-61
2023/01/27 02:55:02;;;;;;;35.13;18.67;;;;;;;-2.61;100.00;96890.03;5011318;28;20566;-58
2023/01/27 02:57:27;;;;;;;37.37;19.10;;;;;;;-2.48;100.00;96884.56;5013068;28;20178;-58
2023/01/27 02:59:52;;;;;;;35.70;20.07;;;;;;;-2.57;100.00;96881.13;5015981;28;20183;-58
2023/01/27 03:02:21;;;;;;;32.07;19.53;;;;;;;-2.67;100.00;96873.47;5016473;28;20179;-60
2023/01/27 03:04:48;;;;;;;33.03;20.30;;;;;;;-2.72;100.00;96875.63;5014357;28;20226;-58
2023/01/27 03:07:14;;;;;;;30.97;19.37;;;;;;;-2.57;100.00;96876.81;5015737;28;20172;-60
2023/01/27 03:09:40;;;;;;;34.00;18.90;;;;;;;-2.49;100.00;96873.50;5016560;28;20376;-58
2023/01/27 03:12:21;;;;;;;37.50;19.33;;;;;;;-2.52;100.00;96873.81;5016441;28;20233;-61
2023/01/27 03:20:16;;;;;;;34.40;18.70;;;;;;;-2.45;100.00;96868.91;5016769;28;20222;-61
2023/01/27 03:22:41;;;;;;;31.43;19.47;;;;;;;-2.43;100.00;96872.94;5019289;28;20628;-61
2023/01/27 03:25:07;;;;;;;31.23;18.87;;;;;;;-2.56;100.00;96885.28;5018325;28;20170;-59
2023/01/27 03:27:33;;;;;;;30.23;18.60;;;;;;;-2.46;100.00;96882.69;5016869;28;20632;-53
2023/01/27 03:29:59;;;;;;;28.63;18.63;;;;;;;-2.48;100.00;96889.72;5016069;28;20182;-55
2023/01/27 03:32:27;;;;;;;28.20;17.70;;;;;;;-2.52;100.00;96891.75;5016415;28;20530;-55
2023/01/27 03:34:56;;;;;;;26.43;17.97;;;;;;;-2.46;100.00;96895.50;5016171;28;20209;-56
2023/01/27 03:48:20;;;;;;;29.20;19.63;;;;;;;-2.51;100.00;96896.72;5016167;28;20568;-55
2023/01/27 03:50:51;;;;;;;31.73;18.77;;;;;;;-2.40;100.00;96894.94;5015851;28;20192;-55
2023/01/27 03:53:20;;;;;;;27.77;17.63;;;;;;;-2.36;100.00;96886.00;5015270;28;20264;-59
2023/01/27 03:55:46;;;;;;;32.30;17.47;;;;;;;-2.39;100.00;96883.72;5015025;28;20180;-56
2023/01/27 03:58:33;;;;;;;25.23;15.93;;;;;;;-2.38;100.00;96885.31;5015587;28;20187;-59
2023/01/27 04:01:00;;;;;;;27.70;17.40;;;;;;;-2.47;100.00;96893.91;5014636;28;20190;-58
2023/01/27 04:08:59;;;;;;;26.77;16.40;;;;;;;-2.51;100.00;96893.38;5015230;28;20214;-59
2023/01/27 04:14:11;;;;;;;27.63;16.57;;;;;;;-2.53;100.00;96897.84;5015724;28;20222;-59
2023/01/27 04:16:37;;;;;;;30.73;18.13;;;;;;;-2.47;100.00;96893.91;5013308;28;20258;-60
2023/01/27 04:19:05;;;;;;;25.17;16.03;;;;;;;-2.48;100.00;96898.22;5010060;28;20175;-59
2023/01/27 04:21:31;;;;;;;26.63;16.80;;;;;;;-2.57;100.00;96893.94;5010026;28;20176;-59
2023/01/27 04:23:56;;;;;;;28.17;18.47;;;;;;;-2.53;100.00;96897.84;5010449;28;21035;-59
2023/01/27 04:26:22;;;;;;;26.63;16.77;;;;;;;-2.53;100.00;96900.41;5009878;28;20171;-60
2023/01/27 04:28:48;;;;;;;24.73;17.63;;;;;;;-2.42;100.00;96907.91;5011054;28;20193;-60
2023/01/27 04:31:14;;;;;;;28.83;16.93;;;;;;;-2.56;100.00;96908.38;4998885;28;20172;-60
2023/01/27 04:33:41;;;;;;;26.67;18.03;;;;;;;-2.56;100.00;96906.63;5014690;28;20261;-55
2023/01/27 04:36:07;;;;;;;25.77;17.90;;;;;;;-2.60;100.00;96902.72;5015186;28;20171;-59
2023/01/27 04:38:32;;;;;;;27.10;18.77;;;;;;;-2.42;100.00;96909.66;5015154;28;20178;-60
2023/01/27 04:40:57;;;;;;;29.80;19.77;;;;;;;-2.31;100.00;96902.59;5014676;28;20171;-59
2023/01/27 04:43:23;;;;;;;26.87;17.27;;;;;;;-2.51;100.00;96895.94;5014870;28;20231;-60
2023/01/27 04:45:48;;;;;;;30.80;19.43;;;;;;;-2.41;100.00;96898.47;5014783;28;20186;-59
2023/01/27 04:48:14;;;;;;;26.67;19.53;;;;;;;-2.26;100.00;96895.25;5014447;28;20175;-59
2023/01/27 04:50:39;;;;;;;28.67;18.33;;;;;;;-2.26;100.00;96895.25;5014405;28;20186;-57
2023/01/27 04:53:04;;;;;;;28.83;18.10;;;;;;;-2.34;100.00;96904.66;5014329;28;20750;-59
2023/01/27 04:55:30;;;;;;;27.10;17.60;;;;;;;-2.31;100.00;96912.03;5014226;28;20679;-60
2023/01/27 04:57:55;;;;;;;29.30;19.73;;;;;;;-2.43;100.00;96908.84;5014538;28;20183;-58
2023/01/27 05:00:21;;;;;;;27.47;19.27;;;;;;;-2.32;100.00;96877.06;5014106;28;20230;-59
2023/01/27 05:02:46;;;;;;;29.13;18.50;;;;;;;-2.26;100.00;96902.97;5014117;28;20187;-60
2023/01/27 05:05:11;;;;;;;29.33;19.80;;;;;;;-2.31;100.00;96923.13;5011963;28;20290;-60
2023/01/27 05:07:38;;;;;;;30.27;20.07;;;;;;;-2.49;100.00;96906.84;5014138;28;20253;-61
2023/01/27 05:10:05;;;;;;;32.37;21.17;;;;;;;-2.46;100.00;96913.47;5014273;28;20178;-59
2023/01/27 05:12:30;;;;;;;32.07;21.60;;;;;;;-2.61;100.00;96908.00;5014324;28;20343;-61
2023/01/27 05:14:56;;;;;;;30.77;20.97;;;;;;;-2.51;100.00;96911.34;5014090;28;20289;-61
2023/01/27 05:17:21;;;;;;;35.97;23.07;;;;;;;-2.65;100.00;96922.06;5014414;28;20187;-58
2023/01/27 05:19:47;;;;;;;37.20;23.70;;;;;;;-2.66;100.00;96910.97;5012487;28;20598;-58
2023/01/27 05:22:12;;;;;;;35.73;22.83;;;;;;;-2.57;100.00;96922.16;5013826;28;20252;-61
2023/01/27 05:24:37;;;;;;;37.13;23.33;;;;;;;-2.67;100.00;96916.25;5013901;28;20241;-59
2023/01/27 05:27:03;;;;;;;39.20;24.07;;;;;;;-2.59;100.00;96918.94;5013907;28;20178;-59
2023/01/27 05:29:29;;;;;;;39.83;25.63;;;;;;;-2.51;100.00;96922.38;5014010;28;20210;-58
2023/01/27 05:31:54;;;;;;;35.00;23.07;;;;;;;-2.42;100.00;96923.31;4996165;28;20215;-61
2023/01/27 05:34:20;;;;;;;35.70;24.10;;;;;;;-2.54;100.00;96920.13;5013637;28;20636;-61
2023/01/27 05:36:45;;;;;;;37.93;24.67;;;;;;;-2.53;100.00;96928.63;5013643;28;20652;-59
2023/01/27 05:39:11;;;;;;;39.03;25.07;;;;;;;-2.43;100.00;96929.38;5013940;28;20171;-61
2023/01/27 05:41:37;;;;;;;35.23;21.97;;;;;;;-2.59;100.00;96929.19;5013984;28;20174;-61
2023/01/27 05:44:03;;;;;;;35.97;23.27;;;;;;;-2.56;100.00;96932.28;5013925;28;20195;-61
2023/01/27 05:46:30;;;;;;;37.87;24.53;;;;;;;-2.54;100.00;96932.13;5013736;28;20179;-61
2023/01/27 05:48:59;;;;;;;38.63;23.67;;;;;;;-2.38;100.00;96939.22;5013446;28;20172;-60
2023/01/27 05:51:27;;;;;;;34.37;23.57;;;;;;;-2.40;100.00;96938.56;5013829;28;20262;-60
2023/01/27 05:53:54;;;;;;;36.83;24.07;;;;;;;-2.38;100.00;96929.75;5012900;28;20210;-60
2023/01/27 05:56:21;;;;;;;35.37;24.10;;;;;;;-2.39;100.00;96938.41;5013420;28;20187;-61
2023/01/27 05:58:47;;;;;;;35.97;22.57;;;;;;;-2.56;100.00;96937.41;5013106;28;20175;-59
2023/01/27 06:01:18;;;;;;;35.97;23.30;;;;;;;-2.40;100.00;96938.56;5013187;28;20270;-57
2023/01/27 06:03:45;;;;;;;35.30;22.93;;;;;;;-2.38;100.00;96934.91;5011094;28;20250;-60
2023/01/27 06:06:12;;;;;;;34.57;22.90;;;;;;;-2.56;100.00;96929.69;5013236;28;20632;-63
2023/01/27 06:08:38;;;;;;;38.27;22.80;;;;;;;-2.54;100.00;96939.84;5013209;28;20160;-59
2023/01/27 06:11:04;;;;;;;37.47;22.40;;;;;;;-2.42;100.00;96938.72;5012774;28;20194;-60
2023/01/27 06:13:30;;;;;;;35.67;22.30;;;;;;;-2.43;100.00;96928.56;4994075;28;20203;-61
2023/01/27 06:15:56;;;;;;;38.63;22.50;;;;;;;-2.41;100.00;96934.38;5012233;28;20724;-58
2023/01/27 06:18:22;;;;;;;37.83;21.77;;;;;;;-2.54;100.00;96948.34;5012994;28;20258;-58
2023/01/27 06:20:48;;;;;;;33.53;22.27;;;;;;;-2.64;100.00;96947.56;5013104;28;20624;-59
2023/01/27 06:23:15;;;;;;;34.80;21.87;;;;;;;-2.61;100.00;96937.03;5013099;28;20211;-60
2023/01/27 06:25:48;;;;;;;36.90;23.03;;;;;;;-2.55;100.00;96940.78;5013483;28;20191;-59
2023/01/27 06:28:14;;;;;;;36.57;23.47;;;;;;;-2.46;100.00;96939.13;5013275;28;20184;-58
2023/01/27 06:30:40;;;;;;;35.30;23.13;;;;;;;-2.39;100.00;96942.72;5012971;28;20301;-57
2023/01/27 06:33:06;;;;;;;33.93;23.33;;;;;;;-2.46;100.00;96946.84;5012705;28;20293;-60
2023/01/27 06:35:34;;;;;;;34.57;23.33;;;;;;;-2.36;100.00;96930.44;5013367;28;20342;-61
2023/01/27 06:38:02;;;;;;;35.63;22.23;;;;;;;-2.38;100.00;96946.91;5013136;28;20178;-58
2023/01/27 06:40:29;;;;;;;33.00;21.47;;;;;;;-2.46;100.00;96939.94;5012628;28;20171;-59
2023/01/27 06:42:55;;;;;;;36.60;26.23;;;;;;;-2.39;100.00;96947.84;5012889;28;20194;-63
2023/01/27 06:45:21;;;;;;;34.27;22.17;;;;;;;-2.43;100.00;96944.78;5012726;28;20191;-60
2023/01/27 06:47:54;;;;;;;36.40;24.57;;;;;;;-2.49;100.00;96959.94;4995349;28;20546;-59
2023/01/27 06:50:20;;;;;;;35.20;22.20;;;;;;;-2.43;100.00;96964.50;4997491;28;20266;-60
2023/01/27 06:52:46;;;;;;;37.37;23.23;;;;;;;-2.41;100.00;96972.88;5013207;28;20262;-63
2023/01/27 06:55:11;;;;;;;37.37;23.23;;;;;;;-2.30;100.00;96970.94;5012656;28;20577;-61
2023/01/27 06:57:37;;;;;;;31.83;21.30;;;;;;;-2.36;100.00;96974.06;5013130;28;20337;-61
2023/01/27 07:00:03;;;;;;;37.10;24.43;;;;;;;-2.33;100.00;96978.91;5007639;28;20274;-60
2023/01/27 07:02:29;;;;;;;33.00;22.03;;;;;;;-2.38;100.00;96981.09;5010631;28;20183;-58
2023/01/27 07:04:55;;;;;;;33.47;21.57;;;;;;;-2.34;100.00;96994.47;5010279;28;20257;-61
2023/01/27 07:07:20;;;;;;;36.70;22.27;;;;;;;-2.33;100.00;96993.50;5012696;28;20214;-60
2023/01/27 07:09:46;;;;;;;35.90;22.63;;;;;;;-2.37;100.00;96997.28;5012341;28;20535;-60
2023/01/27 07:12:11;;;;;;;35.80;23.07;;;;;;;-2.34;100.00;96994.47;5012584;28;20187;-62
2023/01/27 07:14:37;;;;;;;35.33;24.50;;;;;;;-2.38;100.00;97001.63;5012175;28;20202;-62
2023/01/27 07:17:02;;;;;;;37.13;21.20;;;;;;;-2.33;100.00;97008.88;5012092;28;20234;-62
2023/01/27 07:19:27;;;;;;;33.70;22.10;;;;;;;-2.26;100.00;97008.19;5011454;28;20184;-60
2023/01/27 07:21:53;;;;;;;38.43;24.10;;;;;;;-2.30;100.00;97004.31;5011748;28;20214;-60
2023/01/27 07:24:18;;;;;;;35.77;23.23;;;;;;;-2.35;100.00;97011.63;5011429;28;20207;-61
2023/01/27 07:26:46;;;;;;;40.43;23.67;;;;;;;-2.44;100.00;97003.94;5012561;28;20538;-60
2023/01/27 07:29:12;;;;;;;36.47;23.23;;;;;;;-2.31;100.00;97007.81;5012462;28;20703;-61
2023/01/27 07:31:38;;;;;;;40.40;24.63;;;;;;;-2.17;100.00;97011.66;5011974;28;20255;-63
2023/01/27 07:34:03;;;;;;;35.17;23.03;;;;;;;-2.05;100.00;97004.59;5011941;28;20349;-63
2023/01/27 07:36:29;;;;;;;40.87;24.87;;;;;;;-1.97;100.00;97013.19;5012196;28;20179;-60
2023/01/27 07:38:54;;;;;;;37.23;23.97;;;;;;;-2.11;100.00;97014.47;5012176;28;20541;-60
2023/01/27 07:41:21;;;;;;;37.10;23.37;;;;;;;-2.30;100.00;97013.75;5012025;28;20258;-58
2023/01/27 07:43:48;;;;;;;37.73;23.20;;;;;;;-2.30;100.00;97016.31;5013930;28;20209;-57
2023/01/27 07:46:13;;;;;;;33.23;21.07;;;;;;;-2.32;100.00;97018.22;5015819;28;20179;-60
2023/01/27 07:48:39;;;;;;;33.63;20.63;;;;;;;-2.18;100.00;97022.91;5015740;28;20690;-58
2023/01/27 07:51:04;;;;;;;33.47;21.93;;;;;;;-2.33;100.00;97026.84;5015718;28;20191;-59
2023/01/27 07:53:29;;;;;;;34.27;21.37;;;;;;;-2.28;100.00;97034.94;5014769;28;20290;-60
2023/01/27 07:55:58;;;;;;;32.83;21.37;;;;;;;-2.28;100.00;97025.47;5013724;28;20187;-59
2023/01/27 07:58:24;;;;;;;27.17;18.83;;;;;;;-2.24;100.00;97023.47;5009456;28;20210;-59
2023/01/27 08:00:49;;;;;;;29.17;20.53;;;;;;;-2.37;100.00;97030.66;5012771;28;20274;-60
2023/01/27 08:03:24;;;;;;;32.40;20.50;;;;;;;-2.37;100.00;97035.78;5013231;28;20235;-59
2023/01/27 08:05:50;;;;;;;32.83;20.77;;;;;;;-2.33;100.00;97037.94;5015635;28;20179;-60
2023/01/27 08:08:16;;;;;;;32.33;21.87;;;;;;;-2.43;100.00;97038.91;5015041;28;20194;-60
2023/01/27 08:10:45;;;;;;;33.07;20.87;;;;;;;-2.47;100.00;97037.59;5005341;28;20635;-60
2023/01/27 08:13:12;;;;;;;31.27;19.57;;;;;;;-2.35;100.00;97032.16;5012831;28;21083;-60
2023/01/27 08:15:37;;;;;;;32.23;19.27;;;;;;;-2.31;100.00;97028.34;5015199;28;20203;-59
2023/01/27 08:18:03;;;;;;;27.77;18.83;;;;;;;-2.24;100.00;97037.09;5010170;28;20178;-59
2023/01/27 08:20:28;;;;;;;29.53;18.77;;;;;;;-2.25;100.00;97026.97;5009457;28;20168;-59
2023/01/27 08:22:54;;;;;;;25.90;18.63;;;;;;;-2.18;100.00;97033.16;5015393;28;20202;-60
2023/01/27 08:25:20;;;;;;;27.50;18.23;;;;;;;-2.12;100.00;97041.09;5003982;28;20179;-60
2023/01/27 08:27:50;;;;;;;28.73;18.13;;;;;;;-2.04;100.00;97047.28;5002312;28;20547;-60
2023/01/27 08:30:16;;;;;;;28.93;18.40;;;;;;;-2.11;100.00;97052.16;5014272;28;20632;-60
2023/01/27 08:32:42;;;;;;;23.83;16.30;;;;;;;-2.14;100.00;97055.03;5013943;28;20691;-60
2023/01/27 08:35:07;;;;;;;23.53;16.43;;;;;;;-2.11;100.00;97044.47;5014736;28;20260;-60
2023/01/27 08:37:33;;;;;;;24.33;17.23;;;;;;;-1.97;100.00;97053.47;5015436;28;20281;-60
2023/01/27 08:39:58;;;;;;;24.60;16.90;;;;;;;-2.11;100.00;97063.25;5014211;28;20242;-63
2023/01/27 08:42:24;;;;;;;21.77;15.67;;;;;;;-2.10;100.00;97064.88;5013292;28;20199;-60
2023/01/27 08:44:49;;;;;;;24.30;16.47;;;;;;;-2.24;100.00;97056.84;5014828;28;20199;-60
2023/01/27 08:47:15;;;;;;;21.13;15.60;;;;;;;-2.22;100.00;97052.34;5014291;28;20191;-60
2023/01/27 08:49:40;;;;;;;23.20;15.90;;;;;;;-2.27;100.00;97057.09;5014721;28;20190;-60
2023/01/27 08:52:06;;;;;;;22.47;15.93;;;;;;;-2.22;100.00;97054.91;5014259;28;20322;-62
2023/01/27 08:54:31;;;;;;;21.33;16.20;;;;;;;-2.16;100.00;97065.44;5013912;28;20222;-59
2023/01/27 08:56:57;;;;;;;21.10;15.43;;;;;;;-2.06;100.00;97069.75;5013729;28;20273;-60
2023/01/27 08:59:22;;;;;;;21.30;15.80;;;;;;;-2.14;100.00;97067.88;5014510;28;20589;-61
2023/01/27 09:01:48;;;;;;;23.53;15.83;;;;;;;-2.19;100.00;97075.19;5014071;28;20191;-59
2023/01/27 09:04:13;;;;;;;22.80;15.50;;;;;;;-2.24;100.00;97077.38;5011589;28;20242;-60
2023/01/27 09:06:39;;;;;;;22.50;15.63;;;;;;;-2.21;100.00;97074.50;5013063;28;20175;-61
2023/01/27 09:09:07;;;;;;;22.63;16.10;;;;;;;-2.15;100.00;97071.38;4995835;28;20186;-58
2023/01/27 09:11:34;;;;;;;23.37;16.33;;;;;;;-2.19;100.00;97064.91;5014201;28;20175;-60
2023/01/27 09:14:00;;;;;;;24.60;16.23;;;;;;;-2.25;100.00;97065.47;4996662;28;20297;-60
2023/01/27 09:16:26;;;;;;;25.27;16.37;;;;;;;-2.23;100.00;97063.59;5013825;28;20227;-61
2023/01/27 09:18:51;;;;;;;26.27;16.67;;;;;;;-2.32;100.00;97078.06;5009474;28;20564;-61
2023/01/27 09:21:17;;;;;;;24.07;16.73;;;;;;;-2.39;100.00;97071.03;5014155;28;20179;-61
2023/01/27 09:23:42;;;;;;;26.80;15.70;;;;;;;-2.32;100.00;97069.53;5013728;28;20221;-60
2023/01/27 09:26:08;;;;;;;25.13;16.47;;;;;;;-2.51;100.00;97066.06;5013685;28;20536;-60
2023/01/27 09:28:33;;;;;;;24.90;16.07;;;;;;;-2.43;100.00;97073.09;5013595;28;20249;-58
2023/01/27 09:30:59;;;;;;;22.63;16.33;;;;;;;-2.42;100.00;97072.13;5013721;28;20176;-60
2023/01/27 09:33:25;;;;;;;26.50;17.33;;;;;;;-2.33;100.00;97060.22;5012862;28;20210;-60
2023/01/27 09:35:57;;;;;;;30.10;18.70;;;;;;;-2.11;100.00;97060.69;5014314;28;20187;-62
2023/01/27 09:38:25;;;;;;;32.60;18.07;;;;;;;-2.14;100.00;97067.88;5013734;28;20303;-61
2023/01/27 09:41:23;;;;;;;27.87;17.53;;;;;;;-2.22;100.00;97080.59;5012993;28;20179;-60
2023/01/27 09:44:03;;;;;;;29.80;18.63;;;;;;;-2.20;100.00;97076.94;4979302;28;20747;-59
2023/01/27 09:46:58;;;;;;;34.17;18.63;;;;;;;-2.31;100.00;97071.97;5013422;28;20800;-59
2023/01/27 09:49:48;;;;;;;29.57;18.00;;;;;;;-2.10;100.00;97075.13;5012974;28;20172;-59
2023/01/27 09:52:45;;;;;;;29.30;18.43;;;;;;;-2.18;100.00;97075.06;5013497;28;20545;-57
2023/01/27 09:55:41;;;;;;;29.40;18.23;;;;;;;-2.22;100.00;97075.44;5007115;28;21027;-60
2023/01/27 09:58:24;;;;;;;25.90;16.80;;;;;;;-2.29;100.00;97082.91;5012253;28;20551;-58
2023/01/27 10:01:01;;;;;;;28.20;16.00;;;;;;;-2.20;100.00;97081.25;5013637;28;20187;-61
2023/01/27 10:03:46;;;;;;;30.13;15.87;;;;;;;-2.19;100.00;97080.31;5010642;28;20342;-60
2023/01/27 10:06:32;;;;;;;24.53;15.30;;;;;;;-2.03;100.00;97077.16;4956345;28;20290;-60
2023/01/27 10:09:10;;;;;;;25.73;15.83;;;;;;;-2.11;100.00;97081.22;5012718;28;20262;-60
2023/01/27 10:12:00;;;;;;;24.53;15.30;;;;;;;-2.24;100.00;97067.91;5013309;28;20572;-59
2023/01/27 10:14:37;;;;;;;25.47;16.83;;;;;;;-2.19;100.00;97081.13;5012911;28;20211;-62
2023/01/27 10:17:24;;;;;;;27.17;18.23;;;;;;;-2.15;100.00;97077.31;4995538;28;20182;-60
2023/01/27 10:20:19;;;;;;;27.67;19.27;;;;;;;-1.71;100.00;97085.25;5012921;28;20200;-61
2023/01/27 10:23:20;;;;;;;30.67;18.50;;;;;;;-1.54;100.00;97081.91;5012770;28;20632;-60
2023/01/27 10:26:21;;;;;;;28.70;17.77;;;;;;;-1.63;100.00;97076.84;5012954;28;20558;-60
2023/01/27 10:28:53;;;;;;;27.10;15.70;;;;;;;-1.63;100.00;97076.84;4945650;28;20203;-60
2023/01/27 10:31:33;;;;;;;18.53;13.53;;;;;;;-2.06;100.00;97074.88;5013902;28;20167;-60
2023/01/27 10:34:09;;;;;;;20.97;14.37;;;;;;;-1.92;100.00;97089.81;5014692;28;20671;-61
2023/01/27 10:36:42;;;;;;;24.43;15.27;;;;;;;-1.76;100.00;97082.31;4999234;28;20201;-60
2023/01/27 10:39:19;;;;;;;23.27;14.60;;;;;;;-1.86;100.00;97084.13;5013756;28;20176;-61
2023/01/27 10:42:28;;;;;;;22.53;15.20;;;;;;;-1.82;100.00;97093.16;5012885;28;20648;-60
2023/01/27 10:44:59;;;;;;;21.67;14.93;;;;;;;-1.91;100.00;97087.13;5006871;28;20628;-61
2023/01/27 10:47:55;;;;;;;21.67;13.83;;;;;;;-1.90;100.00;97096.44;5012420;28;20298;-58
2023/01/27 10:50:36;;;;;;;19.53;12.77;;;;;;;-1.91;100.00;97102.53;5012427;28;20183;-60
2023/01/27 10:53:32;;;;;;;23.87;15.30;;;;;;;-1.67;100.00;97096.84;5011596;28;20267;-60
2023/01/27 10:56:26;;;;;;;19.77;13.10;;;;;;;-1.75;100.00;97091.63;5007738;28;20246;-61
2023/01/27 10:58:59;;;;;;;22.27;14.60;;;;;;;-1.77;100.00;97094.34;5006297;28;20202;-59
2023/01/27 11:01:31;;;;;;;19.97;13.50;;;;;;;-1.79;100.00;97085.16;5012137;28;20199;-58
2023/01/27 11:04:10;;;;;;;20.00;14.33;;;;;;;-1.53;100.00;97080.97;5005628;28;20234;-59
2023/01/27 11:06:40;;;;;;;22.57;13.40;;;;;;;-1.54;100.00;97083.69;5012516;28;20839;-59
2023/01/27 11:09:24;;;;;;;21.80;13.43;;;;;;;-1.49;100.00;97082.28;5012295;28;20184;-56
2023/01/27 11:11:51;;;;;;;21.87;13.87;;;;;;;-1.47;100.00;97079.59;5012485;28;20262;-59
2023/01/27 11:14:44;;;;;;;21.00;13.90;;;;;;;-1.57;100.00;97083.97;5012361;28;20199;-59
2023/01/27 11:17:14;;;;;;;19.77;12.67;;;;;;;-1.79;100.00;97088.56;5012668;28;20171;-58
2023/01/27 11:19:46;;;;;;;19.67;13.77;;;;;;;-1.69;100.00;97081.59;5014954;28;20174;-56
2023/01/27 11:22:27;;;;;;;23.10;13.57;;;;;;;-1.63;100.00;97087.13;5014972;28;20183;-59
2023/01/27 11:25:06;;;;;;;20.37;13.30;;;;;;;-1.70;100.00;97077.41;5015844;28;20610;-58
2023/01/27 11:28:05;;;;;;;19.73;12.80;;;;;;;-1.59;100.00;97080.72;5009442;28;20554;-59
2023/01/27 11:30:41;;;;;;;19.87;12.60;;;;;;;-1.61;100.00;97078.28;5005248;28;20541;-55
2023/01/27 11:33:26;;;;;;;16.30;12.20;;;;;;;-1.56;100.00;97081.25;5015393;28;20197;-58
2023/01/27 11:35:53;;;;;;;19.73;11.87;;;;;;;-1.52;100.00;97072.31;5014448;28;20274;-59
2023/01/27 11:38:20;;;;;;;18.83;13.10;;;;;;;-1.31;100.00;97069.47;5015458;28;20704;-57
2023/01/27 11:40:50;;;;;;;20.70;13.37;;;;;;;-1.33;100.00;97063.66;5015522;28;20175;-62
2023/01/27 11:43:22;;;;;;;18.80;12.43;;;;;;;-1.31;100.00;97061.75;5015913;28;20215;-59
2023/01/27 11:45:51;;;;;;;17.80;11.63;;;;;;;-1.44;100.00;97056.16;5008221;28;20186;-58
2023/01/27 11:48:18;;;;;;;20.13;13.43;;;;;;;-1.35;100.00;97056.09;5015687;28;20179;-58
2023/01/27 11:50:45;;;;;;;16.73;11.50;;;;;;;-1.40;100.00;97071.16;5015363;28;20183;-59
2023/01/27 11:53:17;;;;;;;19.53;12.17;;;;;;;-1.44;100.00;97067.25;5014853;28;20265;-60
2023/01/27 11:55:48;;;;;;;14.90;11.33;;;;;;;-1.63;100.00;97061.41;5014878;28;20265;-60
2023/01/27 11:58:35;;;;;;;19.73;12.80;;;;;;;-1.39;100.00;97069.38;5015026;28;20183;-60